Time;durP1;ratioP1;P1;durP2;ratioP2;P2;SDS_P1;SDS_P2;PMS_P1;PMS_P2;Temp;Humidity;BMP_temperature;BMP_pressure;BME280_temperature;BME280_humidity;BME280_pressure;Samples;Min_cycle;Max_cycle;Signal;HPM_P1;HPM_P2
2022/01/14 00:01:11;;;;;;;29.50;18.82;;;;;;;-3.21;80.50;100706.59;1744538;82;20850;-75
2022/01/14 00:03:39;;;;;;;28.47;19.40;;;;;;;-3.19;80.58;100718.98;1744545;82;21552;-75
2022/01/14 00:06:05;;;;;;;27.65;18.17;;;;;;;-3.15;80.63;100707.87;1744531;82;20878;-75
2022/01/14 00:08:32;;;;;;;28.45;17.52;;;;;;;-3.13;80.67;100694.62;1744736;82;20956;-75
2022/01/14 00:11:00;;;;;;;31.68;18.95;;;;;;;-3.11;80.81;100682.64;1744687;82;20905;-74
2022/01/14 00:15:56;;;;;;;28.80;17.10;;;;;;;-3.08;80.94;100689.03;1705267;81;21614;-74
2022/01/14 00:18:23;;;;;;;25.62;17.75;;;;;;;-3.05;81.04;100693.30;1744511;82;20857;-74
2022/01/14 00:20:50;;;;;;;27.80;18.77;;;;;;;-3.02;81.13;100686.90;1744675;81;20889;-74
2022/01/14 00:23:18;;;;;;;28.27;17.80;;;;;;;-2.99;81.17;100682.59;1744821;82;21012;-75
2022/01/14 00:34:02;;;;;;;26.90;18.42;;;;;;;-2.85;81.46;100667.13;1744870;82;20956;-74
2022/01/14 00:36:29;;;;;;;25.72;16.62;;;;;;;-2.82;81.49;100647.05;1744832;82;20928;-73
2022/01/14 00:38:55;;;;;;;29.42;17.87;;;;;;;-2.79;81.55;100643.17;1744902;81;20921;-74
2022/01/14 00:41:22;;;;;;;26.73;18.70;;;;;;;-2.77;81.56;100637.17;1744407;82;21503;-74
2022/01/14 00:43:52;;;;;;;30.43;19.32;;;;;;;-2.73;81.58;100628.59;1744595;81;20933;-75
2022/01/14 00:46:17;;;;;;;28.73;18.57;;;;;;;-2.71;81.57;100630.73;1745892;81;21425;-74
2022/01/14 00:48:44;;;;;;;27.70;17.80;;;;;;;-2.68;81.64;100619.59;1745312;82;20929;-75
2022/01/14 00:51:11;;;;;;;27.95;18.80;;;;;;;-2.62;81.60;100632.83;1744770;81;20901;-75
2022/01/14 00:53:38;;;;;;;23.47;16.10;;;;;;;-2.57;81.60;100625.50;1744484;82;21557;-74
2022/01/14 00:56:18;;;;;;;27.62;16.87;;;;;;;-2.52;81.54;100615.20;1744558;80;20920;-73
2022/01/14 01:01:18;;;;;;;26.85;17.92;;;;;;;-2.42;81.45;100633.55;1744561;81;20921;-75
2022/01/14 01:03:45;;;;;;;32.78;19.00;;;;;;;-2.38;81.41;100631.80;1744846;82;20975;-73
2022/01/14 01:06:13;;;;;;;27.58;17.12;;;;;;;-2.34;81.35;100620.20;1744479;82;21530;-75
2022/01/14 01:08:41;;;;;;;28.92;18.23;;;;;;;-2.29;81.27;100618.89;1734322;82;20889;-74
2022/01/14 01:11:10;;;;;;;24.65;15.98;;;;;;;-2.28;81.23;100616.76;1744510;81;21082;-74
2022/01/14 01:13:42;;;;;;;24.55;15.85;;;;;;;-2.21;81.24;100614.55;1744629;81;20937;-74
2022/01/14 01:16:06;;;;;;;24.02;16.17;;;;;;;-2.17;81.09;100613.67;1744569;82;20971;-76
2022/01/14 01:18:33;;;;;;;24.25;16.87;;;;;;;-2.13;81.05;100607.65;1744523;82;21137;-74
2022/01/14 01:21:01;;;;;;;24.75;16.35;;;;;;;-2.09;80.92;100607.17;1744440;82;20960;-74
2022/01/14 01:23:28;;;;;;;24.77;16.37;;;;;;;-2.05;80.83;100608.02;1744424;81;20960;-74
2022/01/14 01:26:10;;;;;;;23.60;16.23;;;;;;;-2.02;80.75;100613.99;1743275;81;20976;-74
2022/01/14 01:28:28;;;;;;;26.80;18.35;;;;;;;-1.98;80.69;100596.41;1743692;81;20948;-75
2022/01/14 01:33:21;;;;;;;21.17;15.55;;;;;;;-1.92;80.57;100583.47;1744332;82;20976;-75
2022/01/14 01:35:48;;;;;;;22.15;15.18;;;;;;;-1.88;80.47;100575.31;1744789;82;21514;-73
2022/01/14 01:38:17;;;;;;;26.25;15.80;;;;;;;-1.86;80.42;100570.17;1744448;82;21410;-74
2022/01/14 01:40:46;;;;;;;24.47;15.68;;;;;;;-1.85;80.40;100566.27;1744777;82;21050;-74
2022/01/14 01:43:13;;;;;;;27.58;17.85;;;;;;;-1.82;80.37;100566.67;1744434;80;21150;-75
2022/01/14 01:45:41;;;;;;;29.23;17.45;;;;;;;-1.81;80.41;100556.39;1744487;82;21455;-75
2022/01/14 01:48:08;;;;;;;27.60;17.12;;;;;;;-1.77;80.43;100552.08;1744385;82;21548;-76
2022/01/14 01:50:36;;;;;;;26.37;16.57;;;;;;;-1.75;80.48;100546.05;1744488;82;20968;-77
2022/01/14 01:53:04;;;;;;;27.50;16.97;;;;;;;-1.71;80.42;100541.30;1744620;82;20924;-75
2022/01/14 01:55:31;;;;;;;24.82;16.97;;;;;;;-1.71;80.42;100545.16;1744746;82;22295;-75
2022/01/14 01:57:58;;;;;;;28.52;17.07;;;;;;;-1.69;80.42;100547.28;1744417;82;20980;-75
2022/01/14 02:00:26;;;;;;;24.12;17.30;;;;;;;-1.67;80.41;100541.69;1744820;82;20881;-75
2022/01/14 02:02:54;;;;;;;24.80;15.30;;;;;;;-1.62;80.35;100542.04;1744407;81;20912;-75
2022/01/14 02:05:22;;;;;;;25.02;16.42;;;;;;;-1.61;80.33;100532.19;1744533;81;20846;-74
2022/01/14 02:07:49;;;;;;;24.07;16.12;;;;;;;-1.58;80.23;100523.14;1744717;82;21892;-75
2022/01/14 02:10:16;;;;;;;26.20;17.32;;;;;;;-1.56;80.24;100518.39;1746084;82;20995;-74
2022/01/14 02:12:51;;;;;;;30.25;17.48;;;;;;;-1.54;80.12;100506.38;1744737;82;20896;-73
2022/01/14 02:15:29;;;;;;;28.92;18.55;;;;;;;-1.52;80.09;100503.80;1744595;81;20917;-74
2022/01/14 02:23:15;;;;;;;27.02;17.32;;;;;;;-1.48;80.20;100492.16;1744394;80;20921;-75
2022/01/14 02:25:42;;;;;;;31.65;18.55;;;;;;;-1.47;80.29;100489.16;1709341;82;20979;-75
2022/01/14 02:28:13;;;;;;;28.30;17.32;;;;;;;-1.47;80.39;100482.31;1744697;81;20909;-75
2022/01/14 02:30:41;;;;;;;27.22;17.02;;;;;;;-1.46;80.50;100476.28;1744549;81;20913;-74
2022/01/14 02:33:09;;;;;;;31.17;19.82;;;;;;;-1.47;80.56;100455.31;1744791;82;21116;-74
2022/01/14 02:35:37;;;;;;;28.07;17.80;;;;;;;-1.46;80.66;100457.00;1744583;81;21030;-75
2022/01/14 02:38:04;;;;;;;25.85;15.25;;;;;;;-1.45;80.72;100451.41;1744528;82;20888;-77
2022/01/14 02:40:31;;;;;;;26.35;17.77;;;;;;;-1.45;81.03;100441.13;1733828;82;20924;-74
2022/01/14 02:43:00;;;;;;;23.07;15.45;;;;;;;-1.44;81.08;100433.00;1744557;81;21490;-75
2022/01/14 02:45:32;;;;;;;32.33;19.65;;;;;;;-1.44;81.27;100427.41;1744546;82;21911;-75
2022/01/14 02:48:01;;;;;;;29.18;17.92;;;;;;;-1.42;81.36;100424.38;1744801;82;20964;-74
2022/01/14 02:50:37;;;;;;;26.30;18.02;;;;;;;-1.39;81.55;100406.77;1744086;81;20980;-75
2022/01/14 02:53:01;;;;;;;30.00;18.55;;;;;;;-1.37;81.58;100410.17;1744121;81;20939;-75
2022/01/14 02:55:32;;;;;;;29.70;18.92;;;;;;;-1.36;81.61;100398.99;1744439;82;21334;-74
2022/01/14 02:57:59;;;;;;;27.82;18.23;;;;;;;-1.35;81.68;100388.69;1744855;82;21141;-76
2022/01/14 03:00:29;;;;;;;25.43;16.77;;;;;;;-1.34;81.71;100376.67;1744410;82;21216;-74
2022/01/14 03:02:59;;;;;;;27.07;17.70;;;;;;;-1.33;81.70;100383.09;1744635;81;21383;-75
2022/01/14 03:05:29;;;;;;;25.75;14.98;;;;;;;-1.29;81.76;100383.88;1744493;82;21046;-75
2022/01/14 03:07:56;;;;;;;26.05;16.10;;;;;;;-1.26;81.76;100361.98;1745025;81;20924;-75
2022/01/14 03:10:23;;;;;;;25.05;17.77;;;;;;;-1.26;81.71;100360.25;1744364;82;21079;-75
2022/01/14 03:12:50;;;;;;;25.48;16.77;;;;;;;-1.25;81.76;100359.37;1744681;82;21296;-74
2022/01/14 03:15:19;;;;;;;26.87;16.85;;;;;;;-1.22;81.88;100352.06;1733883;82;20996;-75
2022/01/14 03:17:46;;;;;;;23.18;16.27;;;;;;;-1.21;81.90;100351.62;1744260;81;20882;-75
2022/01/14 03:20:37;;;;;;;26.87;15.80;;;;;;;-1.20;81.92;100337.87;1744689;82;20873;-75
2022/01/14 03:22:52;;;;;;;30.77;20.00;;;;;;;-1.20;82.00;100332.72;1742825;82;22176;-75
2022/01/14 03:27:57;;;;;;;26.30;16.12;;;;;;;-1.17;82.07;100333.53;1744598;81;21557;-74
2022/01/14 03:30:23;;;;;;;29.10;19.27;;;;;;;-1.15;82.09;100335.64;1744777;82;20893;-73
2022/01/14 03:32:51;;;;;;;28.70;16.55;;;;;;;-1.13;82.13;100326.62;1746256;82;20964;-75
2022/01/14 03:35:18;;;;;;;26.33;16.05;;;;;;;-1.12;82.18;100334.74;1744833;82;21430;-74
2022/01/14 03:37:45;;;;;;;30.68;18.50;;;;;;;-1.12;82.19;100322.72;1744608;82;21448;-74
2022/01/14 03:40:13;;;;;;;31.00;19.23;;;;;;;-1.10;82.21;100323.55;1744903;82;21008;-76
2022/01/14 03:42:40;;;;;;;31.95;20.02;;;;;;;-1.10;82.25;100322.26;1745231;82;21039;-75
2022/01/14 03:45:08;;;;;;;31.48;19.00;;;;;;;-1.06;82.31;100314.06;1755489;81;20936;-74
2022/01/14 03:47:35;;;;;;;28.35;18.45;;;;;;;-1.03;82.29;100308.01;1757955;81;21827;-74
2022/01/14 03:50:02;;;;;;;44.00;24.10;;;;;;;-1.02;82.31;100293.84;1758163;81;20948;-75
2022/01/14 03:52:31;;;;;;;47.53;24.15;;;;;;;-1.03;82.35;100293.41;1757859;81;21548;-75
2022/01/14 03:54:58;;;;;;;40.98;22.35;;;;;;;-1.04;82.42;100289.16;1758225;81;20980;-75
2022/01/14 03:57:25;;;;;;;31.93;19.55;;;;;;;-1.05;82.53;100293.88;1758205;81;20861;-76
2022/01/14 03:59:52;;;;;;;38.15;21.10;;;;;;;-1.04;82.62;100277.58;1757887;81;21021;-75
2022/01/14 04:02:18;;;;;;;31.42;18.17;;;;;;;-1.02;82.65;100260.38;1758002;80;21044;-75
2022/01/14 04:04:45;;;;;;;50.08;22.95;;;;;;;-0.99;82.71;100249.18;1757859;81;20884;-75
2022/01/14 04:07:12;;;;;;;36.63;20.65;;;;;;;-0.96;82.79;100231.09;1758058;81;20896;-76
2022/01/14 04:09:40;;;;;;;32.10;18.70;;;;;;;-0.94;82.87;100224.20;1757834;81;20963;-75
2022/01/14 04:12:16;;;;;;;33.20;18.62;;;;;;;-0.92;82.93;100228.88;1757937;81;21164;-75
2022/01/14 04:17:04;;;;;;;31.90;18.52;;;;;;;-0.90;83.11;100213.81;1757889;80;20916;-76
2022/01/14 04:19:31;;;;;;;32.73;17.90;;;;;;;-0.87;83.18;100202.60;1757754;81;20878;-76
2022/01/14 04:21:58;;;;;;;29.77;18.65;;;;;;;-0.85;83.32;100204.27;1758174;81;20963;-77
2022/01/14 04:24:25;;;;;;;24.75;16.45;;;;;;;-0.83;83.34;100199.09;1757772;81;21520;-77
2022/01/14 04:26:52;;;;;;;27.40;18.57;;;;;;;-0.80;83.46;100195.61;1758018;81;20896;-76
2022/01/14 04:29:19;;;;;;;28.38;17.07;;;;;;;-0.79;83.61;100192.17;1758316;81;20936;-77
2022/01/14 04:31:48;;;;;;;26.95;18.00;;;;;;;-0.77;83.66;100188.68;1757816;81;20936;-76
2022/01/14 04:34:16;;;;;;;28.62;18.45;;;;;;;-0.76;83.82;100185.21;1757941;81;20935;-76
2022/01/14 04:36:43;;;;;;;27.22;15.95;;;;;;;-0.74;83.85;100182.17;1758146;81;21107;-76
2022/01/14 04:39:11;;;;;;;27.62;17.37;;;;;;;-0.71;83.92;100188.56;1757748;81;20978;-75
2022/01/14 04:41:37;;;;;;;26.87;17.17;;;;;;;-0.68;83.97;100182.50;1757998;81;21434;-77
2022/01/14 04:44:06;;;;;;;29.48;16.42;;;;;;;-0.65;84.03;100181.13;1755790;81;20877;-76
2022/01/14 04:46:59;;;;;;;25.88;16.23;;;;;;;-0.61;84.07;100172.92;1750108;82;20932;-77
2022/01/14 04:49:05;;;;;;;25.27;16.35;;;;;;;-0.57;84.13;100171.53;1746030;82;21219;-76
2022/01/14 04:51:32;;;;;;;22.95;17.07;;;;;;;-0.53;84.16;100181.34;1750043;82;20869;-76
2022/01/14 04:53:59;;;;;;;29.90;16.75;;;;;;;-0.50;84.15;100181.26;1750137;80;21461;-76
2022/01/14 04:56:26;;;;;;;25.32;15.70;;;;;;;-0.48;84.20;100175.19;1751555;82;20892;-74
2022/01/14 04:58:53;;;;;;;26.35;16.82;;;;;;;-0.44;84.20;100179.84;1750459;80;20965;-75
2022/01/14 05:01:20;;;;;;;25.45;15.90;;;;;;;-0.43;84.21;100182.36;1750537;82;21543;-76
2022/01/14 05:03:47;;;;;;;27.32;16.10;;;;;;;-0.39;84.23;100186.18;1750161;82;20885;-76
2022/01/14 05:06:13;;;;;;;24.55;15.43;;;;;;;-0.36;84.23;100183.52;1750399;80;20889;-76
2022/01/14 05:08:40;;;;;;;25.30;16.80;;;;;;;-0.33;84.28;100175.75;1750075;82;20896;-77
2022/01/14 05:13:44;;;;;;;27.15;16.02;;;;;;;-0.26;84.28;100185.02;1750128;82;21398;-75
2022/01/14 05:16:11;;;;;;;23.30;15.23;;;;;;;-0.22;84.30;100178.92;1750029;80;20908;-78
2022/01/14 05:18:39;;;;;;;29.45;18.12;;;;;;;-0.19;84.30;100174.98;1749893;82;21481;-75
2022/01/14 05:21:06;;;;;;;26.40;17.73;;;;;;;-0.16;84.23;100177.92;1750339;82;20884;-75
2022/01/14 05:23:32;;;;;;;24.02;15.68;;;;;;;-0.11;84.25;100170.50;1749973;82;21358;-79
2022/01/14 05:26:02;;;;;;;20.30;14.75;;;;;;;-0.08;84.21;100159.27;1750053;82;21665;-79
2022/01/14 05:28:29;;;;;;;22.67;14.30;;;;;;;-0.07;84.28;100157.09;1750161;80;20916;-79
2022/01/14 05:30:57;;;;;;;22.05;14.55;;;;;;;-0.05;84.35;100143.72;1750104;82;20849;-76
2022/01/14 05:33:24;;;;;;;22.82;15.40;;;;;;;-0.04;84.44;100132.09;1750042;82;20920;-77
2022/01/14 05:35:51;;;;;;;22.10;13.85;;;;;;;-0.03;84.55;100114.44;1750146;80;20979;-77
2022/01/14 05:38:18;;;;;;;27.80;15.28;;;;;;;-0.02;84.61;100112.29;1749916;80;21122;-78
2022/01/14 05:40:45;;;;;;;24.18;14.30;;;;;;;0.01;84.77;100119.09;1750019;80;21396;-78
2022/01/14 05:43:12;;;;;;;22.02;13.55;;;;;;;0.05;84.82;100114.27;1750109;82;21445;-78
2022/01/14 05:45:40;;;;;;;22.82;14.07;;;;;;;0.07;84.92;100108.64;1749794;80;20971;-79
2022/01/14 05:48:07;;;;;;;21.75;13.80;;;;;;;0.09;84.91;100106.88;1750150;82;20853;-80
2022/01/14 05:50:34;;;;;;;21.50;13.25;;;;;;;0.13;84.93;100108.91;1750169;82;21138;-80
2022/01/14 05:53:01;;;;;;;16.42;11.75;;;;;;;0.15;84.94;100103.27;1749960;82;20924;-79
2022/01/14 05:55:29;;;;;;;21.55;12.90;;;;;;;0.19;84.96;100099.73;1750928;82;21436;-78
2022/01/14 05:57:56;;;;;;;22.37;13.30;;;;;;;0.22;84.97;100094.94;1750552;82;20885;-80
2022/01/14 06:00:23;;;;;;;18.25;12.35;;;;;;;0.26;84.97;100088.37;1750375;80;20881;-80
2022/01/14 06:02:51;;;;;;;21.12;14.80;;;;;;;0.28;84.96;100084.47;1750119;82;21099;-79
2022/01/14 06:05:18;;;;;;;15.70;11.57;;;;;;;0.30;84.97;100077.09;1750262;80;20959;-79
2022/01/14 06:07:45;;;;;;;19.45;11.97;;;;;;;0.32;84.98;100080.48;1750014;80;20920;-78
2022/01/14 06:10:12;;;;;;;20.15;12.35;;;;;;;0.34;84.99;100076.58;1750249;82;20995;-79
2022/01/14 06:12:39;;;;;;;15.93;11.18;;;;;;;0.37;85.03;100062.30;1750180;80;20889;-79
2022/01/14 06:15:10;;;;;;;16.30;11.08;;;;;;;0.40;85.01;100060.50;1750009;82;22017;-77
2022/01/14 06:17:37;;;;;;;19.92;12.70;;;;;;;0.45;85.02;100062.11;1750360;82;20976;-78
2022/01/14 06:20:06;;;;;;;39.88;18.35;;;;;;;0.49;85.04;100050.80;1749620;82;20936;-77
2022/01/14 06:22:36;;;;;;;25.15;14.13;;;;;;;0.54;85.02;100045.92;1749944;82;20963;-78
2022/01/14 06:25:06;;;;;;;18.87;12.95;;;;;;;0.57;85.01;100052.27;1749426;82;21544;-78
2022/01/14 06:27:34;;;;;;;14.07;10.32;;;;;;;0.61;84.97;100045.30;1750059;82;21102;-78
2022/01/14 06:30:03;;;;;;;17.07;12.65;;;;;;;0.64;85.00;100043.91;1749995;80;20928;-78
2022/01/14 06:32:32;;;;;;;13.90;9.95;;;;;;;0.68;84.99;100041.66;1750110;82;21044;-77
2022/01/14 06:34:58;;;;;;;15.45;11.03;;;;;;;0.72;84.93;100030.36;1750000;82;21475;-75
2022/01/14 06:37:26;;;;;;;18.30;13.18;;;;;;;0.76;84.94;100025.52;1750409;82;20920;-75
2022/01/14 06:39:54;;;;;;;17.32;11.90;;;;;;;0.81;84.83;100026.21;1750409;82;21112;-76
2022/01/14 06:42:23;;;;;;;16.23;11.43;;;;;;;0.83;84.64;100018.44;1749960;82;20976;-75
2022/01/14 06:44:50;;;;;;;15.00;11.33;;;;;;;0.85;84.52;100016.66;1746335;80;20929;-75
2022/01/14 06:47:16;;;;;;;17.12;11.53;;;;;;;0.87;84.35;100012.30;1735983;82;21450;-76
2022/01/14 06:49:43;;;;;;;12.58;9.85;;;;;;;0.87;84.19;100004.97;1736169;82;20924;-76
2022/01/14 06:52:13;;;;;;;14.68;10.23;;;;;;;0.88;84.17;99992.48;1735959;82;21149;-76
2022/01/14 06:54:41;;;;;;;16.25;10.23;;;;;;;0.89;84.16;99983.83;1735408;81;21371;-78
2022/01/14 06:57:09;;;;;;;14.07;10.60;;;;;;;0.89;84.11;99974.38;1736099;82;20976;-77
2022/01/14 06:59:38;;;;;;;15.78;10.72;;;;;;;0.92;84.13;99967.82;1736116;82;21390;-74
2022/01/14 07:02:04;;;;;;;15.53;10.20;;;;;;;0.96;84.06;99962.13;1736380;82;20885;-75
2022/01/14 07:04:33;;;;;;;13.75;10.63;;;;;;;0.99;84.02;99949.95;1736043;82;21306;-77
2022/01/14 07:07:00;;;;;;;14.55;10.75;;;;;;;1.05;84.00;99945.51;1736169;82;20984;-77
2022/01/14 07:09:29;;;;;;;13.95;10.10;;;;;;;1.08;83.88;99931.20;1736111;82;20972;-76
2022/01/14 07:11:58;;;;;;;13.95;9.68;;;;;;;1.12;83.80;99929.76;1736273;82;21363;-75
2022/01/14 07:14:25;;;;;;;13.90;9.60;;;;;;;1.15;83.75;99929.64;1736196;81;20893;-76
2022/01/14 07:16:52;;;;;;;13.55;10.60;;;;;;;1.18;83.65;99922.27;1736382;82;21807;-76
2022/01/14 07:19:21;;;;;;;15.98;11.40;;;;;;;1.20;83.59;99911.41;1736176;82;21458;-76
2022/01/14 07:21:48;;;;;;;16.17;11.97;;;;;;;1.21;83.46;99903.63;1736422;82;20940;-76
2022/01/14 07:24:15;;;;;;;14.93;10.45;;;;;;;1.23;83.43;99910.88;1736150;82;20913;-75
2022/01/14 07:26:42;;;;;;;15.88;9.80;;;;;;;1.27;83.31;99901.73;1736563;82;20925;-75
2022/01/14 07:29:09;;;;;;;17.77;10.23;;;;;;;1.28;83.34;99890.06;1736291;82;22143;-75
2022/01/14 07:31:36;;;;;;;12.15;9.25;;;;;;;1.32;83.37;99890.81;1736146;82;20980;-76
2022/01/14 07:34:03;;;;;;;13.90;9.20;;;;;;;1.35;83.33;99888.95;1736458;82;20893;-75
2022/01/14 07:36:29;;;;;;;11.95;8.40;;;;;;;1.40;83.28;99888.38;1735894;81;20889;-75
2022/01/14 07:38:56;;;;;;;12.20;8.78;;;;;;;1.44;83.21;99880.89;1736508;81;20877;-76
2022/01/14 07:41:26;;;;;;;13.38;10.23;;;;;;;1.49;83.11;99871.72;1736245;81;21508;-77
2022/01/14 07:43:53;;;;;;;10.13;8.25;;;;;;;1.56;83.06;99875.77;1736336;81;20854;-78
2022/01/14 07:46:19;;;;;;;11.15;7.83;;;;;;;1.64;82.91;99880.65;1737504;81;21015;-75
2022/01/14 07:48:46;;;;;;;9.85;7.95;;;;;;;1.73;82.79;99867.85;1737020;82;20846;-79
2022/01/14 07:51:13;;;;;;;10.05;7.53;;;;;;;1.82;82.64;99858.47;1736434;82;20937;-77
2022/01/14 07:53:42;;;;;;;12.85;8.13;;;;;;;1.89;82.40;99869.43;1736467;82;21619;-79
2022/01/14 07:56:11;;;;;;;12.45;8.00;;;;;;;1.95;82.13;99857.13;1737637;81;20976;-78
2022/01/14 07:58:37;;;;;;;8.68;6.67;;;;;;;1.99;81.90;99851.40;1736684;81;20987;-77
2022/01/14 08:01:04;;;;;;;8.85;6.75;;;;;;;2.03;81.71;99838.75;1736091;81;20865;-76
2022/01/14 08:03:31;;;;;;;10.10;6.92;;;;;;;2.11;81.56;99836.70;1736496;82;21027;-77
2022/01/14 08:06:00;;;;;;;7.03;6.33;;;;;;;2.19;81.30;99826.08;1736199;82;21090;-76
2022/01/14 08:08:28;;;;;;;11.05;7.10;;;;;;;2.25;81.04;99817.64;1736069;82;20928;-76
2022/01/14 08:10:56;;;;;;;8.03;6.03;;;;;;;2.34;80.74;99804.80;1736141;81;20928;-78
2022/01/14 08:13:23;;;;;;;7.22;5.12;;;;;;;2.41;80.45;99800.22;1736313;82;20905;-79
2022/01/14 08:15:50;;;;;;;5.67;5.03;;;;;;;2.47;80.09;99799.98;1736223;81;21414;-79
2022/01/14 08:18:17;;;;;;;7.30;5.97;;;;;;;2.49;79.86;99783.48;1736179;82;21469;-78
2022/01/14 08:20:45;;;;;;;6.90;4.78;;;;;;;2.51;79.74;99781.28;1736144;82;21039;-78
2022/01/14 08:23:11;;;;;;;5.97;4.90;;;;;;;2.56;79.63;99776.78;1736603;82;20853;-78
2022/01/14 08:25:38;;;;;;;8.70;5.53;;;;;;;2.60;79.48;99767.95;1736136;82;20885;-79
2022/01/14 08:28:05;;;;;;;6.17;5.08;;;;;;;2.62;79.31;99760.98;1736606;81;21382;-77
2022/01/14 08:30:33;;;;;;;8.18;5.60;;;;;;;2.62;79.19;99764.43;1736083;82;21995;-77
2022/01/14 08:33:00;;;;;;;6.95;4.90;;;;;;;2.63;79.05;99759.63;1736434;81;20881;-79
2022/01/14 08:35:27;;;;;;;9.13;5.35;;;;;;;2.64;78.95;99752.23;1736062;82;20901;-79
2022/01/14 08:37:54;;;;;;;6.67;4.80;;;;;;;2.67;78.90;99750.84;1736290;82;21406;-78
2022/01/14 08:40:21;;;;;;;10.08;5.83;;;;;;;2.69;78.85;99742.98;1736085;82;20885;-79
2022/01/14 08:42:53;;;;;;;6.40;4.90;;;;;;;2.69;78.77;99742.56;1736462;82;22136;-77
2022/01/14 08:45:18;;;;;;;8.23;5.92;;;;;;;2.69;78.63;99738.67;1738795;81;21019;-78
2022/01/14 08:47:48;;;;;;;7.05;5.37;;;;;;;2.70;78.78;99738.22;1750059;82;21366;-79
2022/01/14 08:50:14;;;;;;;7.97;5.47;;;;;;;2.72;78.68;99721.33;1750287;80;20920;-78
2022/01/14 08:52:41;;;;;;;7.62;5.58;;;;;;;2.73;78.60;99729.47;1750103;82;21382;-78
2022/01/14 08:55:09;;;;;;;7.00;5.67;;;;;;;2.72;78.54;99718.28;1750090;82;21437;-78
2022/01/14 08:57:36;;;;;;;9.85;6.33;;;;;;;2.72;78.57;99722.17;1750101;82;20889;-77
2022/01/14 09:00:04;;;;;;;10.75;7.00;;;;;;;2.70;78.41;99718.80;1750117;82;20845;-77
2022/01/14 09:02:33;;;;;;;7.08;5.80;;;;;;;2.69;78.34;99722.28;1750493;81;20951;-77
2022/01/14 09:05:00;;;;;;;6.17;5.40;;;;;;;2.64;78.36;99703.06;1750140;82;20983;-77
2022/01/14 09:07:28;;;;;;;7.83;5.53;;;;;;;2.58;78.35;99689.11;1750241;82;21115;-78
2022/01/14 09:09:55;;;;;;;8.83;5.70;;;;;;;2.56;78.53;99684.91;1751240;82;20933;-75
2022/01/14 09:12:24;;;;;;;8.38;6.55;;;;;;;2.54;78.63;99672.02;1750826;82;20908;-78
2022/01/14 09:14:51;;;;;;;7.75;5.60;;;;;;;2.57;78.73;99666.70;1750033;82;21449;-78
2022/01/14 09:17:18;;;;;;;8.95;5.85;;;;;;;2.60;78.73;99660.55;1750493;82;20857;-78
2022/01/14 09:19:45;;;;;;;7.62;5.22;;;;;;;2.63;78.78;99664.33;1750029;82;21992;-79
2022/01/14 09:22:18;;;;;;;6.55;5.25;;;;;;;2.65;78.77;99648.28;1750300;80;20920;-78
2022/01/14 09:24:41;;;;;;;8.03;5.72;;;;;;;2.66;78.80;99640.42;1748761;82;20956;-78
2022/01/14 09:27:08;;;;;;;6.72;5.30;;;;;;;2.67;78.87;99634.81;1750328;82;20897;-77
2022/01/14 09:29:35;;;;;;;8.20;6.55;;;;;;;2.68;78.92;99619.66;1750355;82;21466;-73
2022/01/14 09:32:02;;;;;;;8.80;6.30;;;;;;;2.68;79.07;99605.42;1750055;82;21555;-75
2022/01/14 09:34:30;;;;;;;7.92;5.78;;;;;;;2.69;79.04;99598.03;1750072;82;20963;-80
2022/01/14 09:36:57;;;;;;;8.88;6.17;;;;;;;2.70;79.03;99588.91;1750349;80;21547;-81
2022/01/14 09:39:24;;;;;;;9.55;7.47;;;;;;;2.67;79.13;99577.88;1750002;82;20999;-79
2022/01/14 09:41:51;;;;;;;6.80;4.92;;;;;;;2.65;79.15;99570.17;1750149;82;20979;-80
2022/01/14 09:44:18;;;;;;;5.37;4.87;;;;;;;2.66;79.18;99561.94;1750095;80;21739;-81
2022/01/14 09:46:50;;;;;;;5.10;4.58;;;;;;;2.67;79.25;99560.59;1749984;81;20857;-78
2022/01/14 09:49:18;;;;;;;4.85;4.33;;;;;;;2.69;79.24;99561.80;1750059;82;21003;-77
2022/01/14 09:51:46;;;;;;;5.85;5.12;;;;;;;2.71;79.22;99559.98;1750311;82;20948;-76
2022/01/14 09:54:13;;;;;;;7.65;5.30;;;;;;;2.75;79.20;99548.58;1750064;80;20932;-76
2022/01/14 09:56:41;;;;;;;6.85;5.47;;;;;;;2.79;79.26;99532.01;1750031;80;21405;-77
2022/01/14 09:59:08;;;;;;;6.28;5.15;;;;;;;2.82;79.04;99533.15;1749992;82;20984;-77
2022/01/14 10:01:45;;;;;;;7.78;6.00;;;;;;;2.86;78.91;99535.98;1749990;82;21018;-78
2022/01/14 10:04:19;;;;;;;8.80;5.15;;;;;;;2.87;78.76;99531.67;1750124;81;21461;-74
2022/01/14 10:06:54;;;;;;;6.00;5.15;;;;;;;2.89;78.79;99516.88;1750341;80;21023;-76
2022/01/14 10:09:38;;;;;;;5.58;5.05;;;;;;;2.93;78.75;99508.52;1750173;82;21461;-77
2022/01/14 10:12:15;;;;;;;3.92;3.52;;;;;;;2.97;78.79;99500.55;1750187;82;20876;-77
2022/01/14 10:14:58;;;;;;;4.20;3.80;;;;;;;3.01;78.57;99490.89;1750724;82;20896;-81
2022/01/14 10:17:26;;;;;;;7.72;5.55;;;;;;;3.03;78.31;99496.38;1748570;82;21498;-79
2022/01/14 10:19:52;;;;;;;9.18;6.85;;;;;;;3.04;78.30;99503.22;1750130;82;20908;-77
2022/01/14 10:22:27;;;;;;;8.15;7.28;;;;;;;3.05;78.14;99503.63;1750098;80;21139;-76
2022/01/14 10:25:07;;;;;;;11.30;8.95;;;;;;;3.05;78.11;99491.13;1750206;82;20845;-77
2022/01/14 10:27:41;;;;;;;11.73;9.30;;;;;;;3.04;78.11;99479.91;1750194;82;20861;-75
2022/01/14 10:30:21;;;;;;;7.97;7.17;;;;;;;3.04;78.21;99476.48;1750356;82;20928;-76
2022/01/14 10:32:57;;;;;;;5.87;4.40;;;;;;;3.05;78.36;99463.94;1750256;82;20983;-75
2022/01/14 10:35:27;;;;;;;5.12;4.08;;;;;;;3.05;78.49;99458.76;1751497;82;21037;-74
2022/01/14 10:37:57;;;;;;;4.85;3.90;;;;;;;3.04;78.63;99441.53;1750160;81;20884;-75
2022/01/14 10:40:25;;;;;;;6.50;4.15;;;;;;;3.01;78.73;99425.69;1750099;80;20845;-76
2022/01/14 10:43:02;;;;;;;7.53;4.53;;;;;;;2.98;78.87;99415.48;1750158;80;20912;-75
2022/01/14 10:45:29;;;;;;;5.30;4.03;;;;;;;2.91;78.94;99419.26;1749703;82;20893;-74
2022/01/14 10:48:10;;;;;;;5.22;4.05;;;;;;;2.87;79.16;99396.58;1750036;82;22025;-76
2022/01/14 10:50:47;;;;;;;8.13;4.72;;;;;;;2.86;79.39;99398.77;1750192;82;21210;-76
2022/01/14 10:53:18;;;;;;;8.38;5.65;;;;;;;2.84;79.56;99391.52;1749951;82;20916;-75
2022/01/14 10:55:52;;;;;;;23.42;10.82;;;;;;;2.83;79.72;99379.51;1749287;82;20896;-75
2022/01/14 11:00:50;;;;;;;9.68;5.95;;;;;;;2.87;79.95;99377.16;1798531;79;22575;-75
2022/01/14 11:03:34;;;;;;;9.70;5.60;;;;;;;2.84;80.06;99371.28;1757204;81;20908;-75
2022/01/14 11:06:25;;;;;;;3.87;3.58;;;;;;;2.81;80.12;99361.91;1741452;81;21187;-75
2022/01/14 11:09:13;;;;;;;5.28;4.20;;;;;;;2.80;80.13;99358.09;1758083;81;20944;-73
2022/01/14 11:11:45;;;;;;;5.78;3.72;;;;;;;2.75;80.28;99338.91;1758198;80;20928;-74
2022/01/14 11:14:14;;;;;;;5.30;3.52;;;;;;;2.67;80.39;99343.17;1758719;81;20935;-74
2022/01/14 11:16:41;;;;;;;5.20;3.52;;;;;;;2.63;80.68;99335.17;1758430;81;20920;-74
2022/01/14 11:19:09;;;;;;;4.35;3.75;;;;;;;2.62;80.91;99341.70;1758429;81;22156;-74
2022/01/14 11:24:30;;;;;;;5.10;4.00;;;;;;;2.61;81.13;99320.63;1758391;80;20935;-74
2022/01/14 11:27:01;;;;;;;7.97;5.13;;;;;;;2.61;81.23;99319.34;1758717;80;20907;-75
2022/01/14 11:29:43;;;;;;;7.05;4.20;;;;;;;2.62;81.37;99318.41;1758668;81;21127;-74
2022/01/14 11:32:12;;;;;;;4.73;3.27;;;;;;;2.61;81.42;99316.28;1758487;80;20936;-74
2022/01/14 11:34:44;;;;;;;8.05;4.40;;;;;;;2.62;81.45;99305.47;1758577;81;20884;-73
2022/01/14 11:37:17;;;;;;;5.62;4.03;;;;;;;2.62;81.53;99301.16;1758440;80;21477;-74
2022/01/14 11:39:56;;;;;;;6.90;4.78;;;;;;;2.62;81.55;99285.63;1696137;83;20926;-73
2022/01/14 11:42:50;;;;;;;6.53;4.87;;;;;;;2.64;81.54;99281.19;1724930;83;20986;-73
2022/01/14 11:45:21;;;;;;;10.30;6.83;;;;;;;2.66;81.57;99261.24;1725156;81;21164;-73
2022/01/14 11:47:51;;;;;;;9.55;5.50;;;;;;;2.66;81.57;99255.23;1696552;83;20896;-73
2022/01/14 11:50:32;;;;;;;13.72;9.00;;;;;;;2.68;81.54;99250.36;1724898;83;20990;-74
2022/01/14 11:52:59;;;;;;;7.00;5.30;;;;;;;2.68;81.54;99240.01;1724803;83;20943;-75
2022/01/14 11:55:35;;;;;;;8.93;6.30;;;;;;;2.69;81.55;99225.31;1725319;82;20923;-76
2022/01/14 11:58:04;;;;;;;6.78;5.55;;;;;;;2.68;81.54;99221.89;1726250;83;21144;-72
2022/01/14 12:00:38;;;;;;;6.90;5.33;;;;;;;2.69;81.53;99214.95;1718740;82;20943;-72
2022/01/14 12:03:15;;;;;;;7.08;5.55;;;;;;;2.69;81.53;99224.02;1716651;83;20971;-74